Time;durP1;ratioP1;P1;durP2;ratioP2;P2;SDS_P1;SDS_P2;PMS_P1;PMS_P2;Temp;Humidity;BMP_temperature;BMP_pressure;BME280_temperature;BME280_humidity;BME280_pressure;Samples;Min_cycle;Max_cycle;Signal;HPM_P1;HPM_P2
2023/09/28 00:01:55;;;;;;;;;;;;;;;22.57;45.11;101141.97;5072083;28;20373;-66
2023/09/28 00:04:21;;;;;;;;;;;;;;;22.63;45.29;101134.63;5072302;28;19916;-66
2023/09/28 00:06:46;;;;;;;;;;;;;;;22.95;44.60;101133.84;5072269;28;19913;-66
2023/09/28 00:09:12;;;;;;;;;;;;;;;22.86;45.29;101133.47;5072201;28;19946;-66
2023/09/28 00:11:39;;;;;;;;;;;;;;;23.11;44.42;101134.84;5056275;28;19913;-66
2023/09/28 00:14:04;;;;;;;;;;;;;;;23.21;43.67;101139.56;5062350;28;19970;-66
2023/09/28 00:16:31;;;;;;;;;;;;;;;23.26;44.26;101143.19;5081785;28;19920;-66
2023/09/28 00:18:57;;;;;;;;;;;;;;;23.32;44.05;101147.59;5059621;28;19917;-66
2023/09/28 00:21:22;;;;;;;;;;;;;;;23.32;44.25;101144.03;5067585;28;19924;-66
2023/09/28 00:23:49;;;;;;;;;;;;;;;23.31;44.40;101136.88;5072827;28;19923;-66
2023/09/28 00:26:16;;;;;;;;;;;;;;;23.27;44.16;101146.75;5073039;28;19919;-66
2023/09/28 00:28:42;;;;;;;;;;;;;;;23.23;44.44;101142.88;5072672;28;19912;-66
2023/09/28 00:31:08;;;;;;;;;;;;;;;23.23;44.11;101140.13;5072777;28;19962;-66
2023/09/28 00:33:33;;;;;;;;;;;;;;;23.18;44.12;101138.19;5072908;28;20292;-66
2023/09/28 00:35:58;;;;;;;;;;;;;;;23.18;44.36;101140.94;5073304;28;19916;-66
2023/09/28 00:38:24;;;;;;;;;;;;;;;23.16;44.08;101145.81;5073331;28;20429;-66
2023/09/28 00:40:49;;;;;;;;;;;;;;;23.17;43.96;101139.25;5073151;28;19923;-66
2023/09/28 00:43:14;;;;;;;;;;;;;;;23.11;43.53;101134.84;5072711;28;19916;-66
2023/09/28 00:45:41;;;;;;;;;;;;;;;23.10;44.04;101136.72;5072956;28;19955;-66
2023/09/28 00:48:09;;;;;;;;;;;;;;;23.11;44.05;101140.31;5054769;28;19913;-66
2023/09/28 00:50:35;;;;;;;;;;;;;;;23.13;44.32;101141.69;5055163;28;19913;-66
2023/09/28 00:53:02;;;;;;;;;;;;;;;23.13;43.84;101138.97;5072637;28;19916;-66
2023/09/28 00:55:29;;;;;;;;;;;;;;;23.15;43.83;101128.56;5072297;28;19913;-66
2023/09/28 00:57:59;;;;;;;;;;;;;;;23.16;43.77;101132.13;5072929;28;19965;-66
2023/09/28 01:00:29;;;;;;;;;;;;;;;23.14;43.55;101132.41;5073212;28;19913;-66
2023/09/28 01:02:55;;;;;;;;;;;;;;;23.14;43.57;101131.56;5075777;28;19916;-66
2023/09/28 01:05:22;;;;;;;;;;;;;;;23.14;43.69;101134.28;5075907;28;19923;-66
2023/09/28 01:07:48;;;;;;;;;;;;;;;23.12;44.07;101126.38;5076141;28;19935;-66
2023/09/28 01:10:20;;;;;;;;;;;;;;;23.12;43.52;101131.00;5070707;28;20349;-66
2023/09/28 01:12:47;;;;;;;;;;;;;;;23.09;43.53;101124.13;5056165;28;19913;-66
2023/09/28 01:15:12;;;;;;;;;;;;;;;23.09;44.06;101109.63;5055392;28;19920;-66
2023/09/28 01:17:38;;;;;;;;;;;;;;;23.10;43.92;101105.78;5078593;28;19917;-66
2023/09/28 01:20:23;;;;;;;;;;;;;;;23.12;43.71;101115.41;5076007;28;20284;-67
2023/09/28 01:22:49;;;;;;;;;;;;;;;23.11;43.86;101113.75;5075782;28;20373;-67
2023/09/28 01:25:15;;;;;;;;;;;;;;;23.15;44.14;101114.03;5075895;28;19913;-67
2023/09/28 01:27:44;;;;;;;;;;;;;;;23.14;44.10;101113.22;5082203;28;19923;-66
2023/09/28 01:30:11;;;;;;;;;;;;;;;23.15;44.06;101109.38;5076595;28;19916;-66
2023/09/28 01:32:37;;;;;;;;;;;;;;;23.10;43.53;101105.78;5075765;28;19995;-66
2023/09/28 01:35:02;;;;;;;;;;;;;;;23.11;43.59;101105.53;5075401;28;20013;-66
2023/09/28 01:37:31;;;;;;;;;;;;;;;23.08;43.53;101106.03;5075644;28;19920;-66
2023/09/28 01:39:56;;;;;;;;;;;;;;;23.10;44.33;101116.72;5075563;28;19962;-66
2023/09/28 01:42:22;;;;;;;;;;;;;;;23.10;43.97;101105.78;5075266;28;19920;-66
2023/09/28 01:44:47;;;;;;;;;;;;;;;23.09;43.65;101096.75;5075543;28;19982;-66
2023/09/28 01:47:12;;;;;;;;;;;;;;;23.10;43.63;101101.13;5075128;28;19913;-66
2023/09/28 01:49:38;;;;;;;;;;;;;;;23.12;43.34;101092.63;5075665;28;19928;-66
2023/09/28 01:52:03;;;;;;;;;;;;;;;23.08;43.24;101091.50;5075099;28;19913;-66
2023/09/28 01:54:28;;;;;;;;;;;;;;;23.10;43.80;101094.81;5074700;28;19912;-66
2023/09/28 01:56:54;;;;;;;;;;;;;;;23.08;43.40;101102.47;5093965;28;19916;-66
2023/09/28 01:59:19;;;;;;;;;;;;;;;23.08;43.45;101097.81;5095150;28;19919;-66
2023/09/28 02:01:44;;;;;;;;;;;;;;;23.09;43.75;101087.69;5090145;28;19912;-66
2023/09/28 02:04:09;;;;;;;;;;;;;;;23.12;43.63;101084.41;5074790;28;20353;-66
2023/09/28 02:06:35;;;;;;;;;;;;;;;23.13;42.92;101083.34;5074882;28;20377;-66
2023/09/28 02:09:00;;;;;;;;;;;;;;;23.09;43.01;101077.56;5074662;28;19924;-67
2023/09/28 02:11:26;;;;;;;;;;;;;;;23.04;42.94;101068.47;5075092;28;20054;-67
2023/09/28 02:13:51;;;;;;;;;;;;;;;23.00;42.89;101065.41;5056232;28;20069;-67
2023/09/28 02:16:16;;;;;;;;;;;;;;;22.96;42.67;101062.34;5074675;28;20403;-67
2023/09/28 02:18:42;;;;;;;;;;;;;;;22.91;42.98;101045.06;5074742;28;19919;-67
2023/09/28 02:21:11;;;;;;;;;;;;;;;22.84;43.12;101049.94;5075199;28;19947;-67
2023/09/28 02:23:37;;;;;;;;;;;;;;;22.81;43.03;101041.16;5074893;28;19924;-67
2023/09/28 02:26:06;;;;;;;;;;;;;;;22.79;42.97;101048.81;5074467;28;19913;-67
2023/09/28 02:28:31;;;;;;;;;;;;;;;22.74;43.44;101039.72;5082500;28;20351;-67
2023/09/28 02:31:02;;;;;;;;;;;;;;;22.69;43.90;101040.50;5074385;28;19939;-67
2023/09/28 02:33:29;;;;;;;;;;;;;;;22.72;43.71;101036.41;5074690;28;19935;-67
2023/09/28 02:35:54;;;;;;;;;;;;;;;22.74;43.05;101040.53;5074543;28;19919;-67
2023/09/28 02:38:19;;;;;;;;;;;;;;;22.67;43.13;101033.63;5074318;28;19917;-67
2023/09/28 02:40:45;;;;;;;;;;;;;;;22.62;43.36;101028.91;5058297;28;19913;-67
2023/09/28 02:43:10;;;;;;;;;;;;;;;22.61;43.70;101022.63;5054229;28;20027;-67
2023/09/28 02:45:36;;;;;;;;;;;;;;;22.63;43.26;101024.28;5054655;28;19999;-66
2023/09/28 02:48:01;;;;;;;;;;;;;;;22.63;43.53;101037.97;5074253;28;20265;-66
2023/09/28 02:50:26;;;;;;;;;;;;;;;22.60;43.53;101029.22;5074493;28;20396;-66
2023/09/28 02:52:54;;;;;;;;;;;;;;;22.58;43.46;101036.00;5074062;28;19913;-66
2023/09/28 02:55:19;;;;;;;;;;;;;;;22.57;43.36;101035.19;5078876;28;19981;-66
2023/09/28 02:57:44;;;;;;;;;;;;;;;22.56;43.31;101016.28;5094477;28;19912;-66
2023/09/28 03:00:24;;;;;;;;;;;;;;;22.52;43.20;101006.94;5092684;28;19916;-65
2023/09/28 03:02:51;;;;;;;;;;;;;;;22.48;43.54;101014.84;5073824;28;19986;-65
2023/09/28 03:05:18;;;;;;;;;;;;;;;22.44;43.11;101021.94;5073842;28;19913;-65
2023/09/28 03:07:44;;;;;;;;;;;;;;;22.39;42.94;101010.94;5073822;28;20272;-66
2023/09/28 03:10:11;;;;;;;;;;;;;;;22.35;43.41;101012.53;5073783;28;20003;-66
2023/09/28 03:12:37;;;;;;;;;;;;;;;22.29;42.78;101019.88;5073638;28;19913;-66
2023/09/28 03:15:10;;;;;;;;;;;;;;;22.26;42.95;100997.69;5073692;28;19913;-66
2023/09/28 03:17:35;;;;;;;;;;;;;;;22.19;42.90;100985.00;5092610;28;19919;-66
2023/09/28 03:20:01;;;;;;;;;;;;;;;22.18;42.85;100980.59;5059014;28;19912;-66
2023/09/28 03:22:26;;;;;;;;;;;;;;;22.14;43.11;100982.22;5087829;28;20011;-66
2023/09/28 03:24:51;;;;;;;;;;;;;;;22.13;43.27;100996.16;5073350;28;20015;-67
2023/09/28 03:27:17;;;;;;;;;;;;;;;22.08;43.23;100994.16;5076575;28;19920;-67
2023/09/28 03:29:43;;;;;;;;;;;;;;;22.06;43.44;100977.19;5078355;28;19924;-67
2023/09/28 03:32:08;;;;;;;;;;;;;;;22.06;43.66;100990.88;5073291;28;19936;-67
2023/09/28 03:34:33;;;;;;;;;;;;;;;22.04;43.78;100998.50;5073686;28;19975;-66
2023/09/28 03:36:59;;;;;;;;;;;;;;;22.02;43.62;101006.16;5057743;28;19920;-67
2023/09/28 03:39:24;;;;;;;;;;;;;;;21.96;43.84;101007.19;5053487;28;19919;-67
2023/09/28 03:41:49;;;;;;;;;;;;;;;21.90;44.05;101011.78;5053023;28;19913;-67
2023/09/28 03:44:15;;;;;;;;;;;;;;;21.88;44.03;101026.75;5053176;28;19928;-67
2023/09/28 03:46:41;;;;;;;;;;;;;;;21.87;43.76;101016.91;5062402;28;19991;-66
2023/09/28 03:49:06;;;;;;;;;;;;;;;21.82;43.99;101017.66;5073374;28;20004;-66
2023/09/28 03:51:32;;;;;;;;;;;;;;;21.78;44.13;101014.63;5073399;28;20335;-67
2023/09/28 03:53:57;;;;;;;;;;;;;;;21.78;44.26;101017.34;5072917;28;19917;-66
2023/09/28 03:56:22;;;;;;;;;;;;;;;21.76;44.23;101015.97;5087354;28;20289;-66
2023/09/28 03:58:48;;;;;;;;;;;;;;;21.73;44.12;101011.00;5081870;28;20655;-66
2023/09/28 04:01:14;;;;;;;;;;;;;;;21.71;43.64;101007.69;5072991;28;19920;-66
2023/09/28 04:03:40;;;;;;;;;;;;;;;21.71;43.94;101014.00;5053157;28;19988;-66
2023/09/28 04:06:05;;;;;;;;;;;;;;;21.69;44.02;101007.13;5065561;28;19917;-66
2023/09/28 04:08:31;;;;;;;;;;;;;;;21.67;43.68;101009.28;5072615;28;19920;-66
2023/09/28 04:10:56;;;;;;;;;;;;;;;21.68;44.09;101016.44;5072834;28;19935;-66
2023/09/28 04:13:21;;;;;;;;;;;;;;;21.75;43.70;100985.06;5072856;28;20355;-66
2023/09/28 04:15:48;;;;;;;;;;;;;;;21.76;43.79;100981.25;5076603;28;20353;-66
2023/09/28 04:18:14;;;;;;;;;;;;;;;21.76;44.14;100978.50;5091429;28;19927;-67
2023/09/28 04:20:40;;;;;;;;;;;;;;;21.78;43.64;100978.25;5073192;28;19920;-66
2023/09/28 04:23:08;;;;;;;;;;;;;;;21.81;43.60;100970.38;5072826;28;20392;-66
2023/09/28 04:25:33;;;;;;;;;;;;;;;21.83;43.43;100976.41;5073180;28;19973;-66
2023/09/28 04:27:59;;;;;;;;;;;;;;;21.84;43.42;100977.22;5081183;28;19916;-66
2023/09/28 04:30:24;;;;;;;;;;;;;;;21.84;43.38;100988.16;5072915;28;19912;-66
2023/09/28 04:32:54;;;;;;;;;;;;;;;21.87;43.39;100979.47;5042803;28;19916;-66
2023/09/28 04:35:20;;;;;;;;;;;;;;;21.89;43.44;100981.94;5053245;28;19919;-67
2023/09/28 04:37:47;;;;;;;;;;;;;;;21.85;43.83;100963.31;5056922;28;20345;-67
2023/09/28 04:40:13;;;;;;;;;;;;;;;21.84;43.46;100947.16;5056914;28;20014;-67
2023/09/28 04:42:39;;;;;;;;;;;;;;;21.79;44.13;100941.66;5056437;28;19932;-67
2023/09/28 04:45:05;;;;;;;;;;;;;;;21.80;43.72;100929.63;5056777;28;19913;-67
2023/09/28 04:47:30;;;;;;;;;;;;;;;21.80;44.00;100880.41;5072462;28;19923;-67
2023/09/28 04:49:55;;;;;;;;;;;;;;;21.71;43.70;100855.44;5076549;28;19935;-67
2023/09/28 04:52:22;;;;;;;;;;;;;;;21.68;44.00;100891.50;5076584;28;19955;-67
2023/09/28 04:54:48;;;;;;;;;;;;;;;21.50;43.89;100908.25;5058964;28;19912;-66
2023/09/28 04:57:13;;;;;;;;;;;;;;;21.45;44.13;100918.03;5096879;28;19918;-66
2023/09/28 04:59:38;;;;;;;;;;;;;;;21.45;44.08;100917.19;5096537;28;19938;-66
2023/09/28 05:02:04;;;;;;;;;;;;;;;21.45;44.58;100912.56;5085915;28;19959;-66
2023/09/28 05:04:30;;;;;;;;;;;;;;;21.50;44.30;100900.84;5076653;28;20011;-66
2023/09/28 05:06:56;;;;;;;;;;;;;;;21.53;44.23;100913.19;5058709;28;20019;-65
2023/09/28 05:09:21;;;;;;;;;;;;;;;21.53;44.22;100899.53;5041194;28;19925;-66
2023/09/28 05:11:46;;;;;;;;;;;;;;;21.52;44.03;100895.97;5058286;28;19975;-66
2023/09/28 05:14:12;;;;;;;;;;;;;;;21.53;43.78;100888.59;5055765;28;19917;-66
2023/09/28 05:16:37;;;;;;;;;;;;;;;21.52;44.05;100893.22;5085836;28;19912;-66
2023/09/28 05:19:02;;;;;;;;;;;;;;;21.56;44.29;100877.13;5096125;28;20342;-66
2023/09/28 05:21:27;;;;;;;;;;;;;;;21.62;44.06;100874.22;5096183;28;19927;-67
2023/09/28 05:23:53;;;;;;;;;;;;;;;21.58;43.89;100862.16;5096073;28;19916;-66
2023/09/28 05:26:18;;;;;;;;;;;;;;;21.57;43.24;100860.50;5096046;28;19912;-65
2023/09/28 05:28:44;;;;;;;;;;;;;;;21.57;43.52;100868.69;5078368;28;19912;-65
2023/09/28 05:31:09;;;;;;;;;;;;;;;21.53;44.10;100864.81;5075413;28;19912;-65
2023/09/28 05:33:34;;;;;;;;;;;;;;;21.55;43.80;100875.50;5075829;28;20054;-65
2023/09/28 05:36:00;;;;;;;;;;;;;;;21.55;43.73;100876.31;5075657;28;19916;-65
2023/09/28 05:38:25;;;;;;;;;;;;;;;21.55;43.77;100883.72;5075652;28;19912;-65
2023/09/28 05:40:50;;;;;;;;;;;;;;;21.59;43.78;100882.91;5075391;28;19913;-67
2023/09/28 05:43:16;;;;;;;;;;;;;;;21.63;43.50;100883.22;5075501;28;20418;-66
2023/09/28 05:45:41;;;;;;;;;;;;;;;21.65;43.43;100881.06;5075535;28;19919;-67
2023/09/28 05:48:06;;;;;;;;;;;;;;;21.54;43.62;100871.94;5073969;28;20312;-67
2023/09/28 05:50:31;;;;;;;;;;;;;;;21.65;43.39;100873.69;5075091;28;19951;-66
2023/09/28 05:52:57;;;;;;;;;;;;;;;21.67;42.78;100861.69;5074886;28;20264;-66
2023/09/28 05:55:24;;;;;;;;;;;;;;;21.67;43.38;100857.03;5074276;28;20003;-66
2023/09/28 05:57:50;;;;;;;;;;;;;;;21.71;43.17;100855.44;5075034;28;19990;-66
2023/09/28 06:00:16;;;;;;;;;;;;;;;21.73;43.43;100850.56;5074777;28;19913;-66
2023/09/28 06:02:41;;;;;;;;;;;;;;;21.83;43.08;100844.34;5074649;28;19959;-66
2023/09/28 06:05:06;;;;;;;;;;;;;;;21.90;43.11;100827.69;5074709;28;19913;-66
2023/09/28 06:07:32;;;;;;;;;;;;;;;21.84;42.92;100822.22;5074856;28;19913;-66
2023/09/28 06:09:57;;;;;;;;;;;;;;;21.80;42.91;100812.03;5053733;28;20070;-66
2023/09/28 06:12:22;;;;;;;;;;;;;;;21.84;43.47;100811.28;5069942;28;19920;-66
2023/09/28 06:14:48;;;;;;;;;;;;;;;21.87;42.82;100800.91;5074772;28;19920;-67
2023/09/28 06:17:13;;;;;;;;;;;;;;;21.83;43.04;100795.94;5090056;28;19952;-67
2023/09/28 06:19:39;;;;;;;;;;;;;;;21.79;42.11;100788.53;5095022;28;19985;-67
2023/09/28 06:22:09;;;;;;;;;;;;;;;21.78;42.42;100765.81;5072389;28;19917;-67
2023/09/28 06:24:34;;;;;;;;;;;;;;;21.73;43.08;100763.06;5060415;28;19916;-67
2023/09/28 06:26:59;;;;;;;;;;;;;;;21.32;42.44;100713.50;5075424;28;20008;-67
2023/09/28 06:29:25;;;;;;;;;;;;;;;21.61;42.78;100767.88;5072376;28;19912;-67
2023/09/28 06:31:50;;;;;;;;;;;;;;;21.59;42.36;100778.25;5071413;28;19974;-67
2023/09/28 06:34:15;;;;;;;;;;;;;;;21.58;42.66;100776.56;5062184;28;20003;-67
2023/09/28 06:36:41;;;;;;;;;;;;;;;21.46;42.58;100776.75;5063282;28;19912;-67
2023/09/28 06:39:06;;;;;;;;;;;;;;;21.44;42.67;100773.44;5063989;28;20327;-67
2023/09/28 06:41:32;;;;;;;;;;;;;;;21.47;42.67;100775.69;5064933;28;20378;-67
2023/09/28 06:43:57;;;;;;;;;;;;;;;21.56;43.30;100776.03;5064339;28;19924;-66
2023/09/28 06:46:23;;;;;;;;;;;;;;;21.59;42.66;100792.72;5073726;28;19917;-66
2023/09/28 06:48:49;;;;;;;;;;;;;;;21.62;43.28;100802.34;5073919;28;20312;-66
2023/09/28 06:51:15;;;;;;;;;;;;;;;21.63;43.09;100801.22;5073903;28;19919;-67
2023/09/28 06:53:41;;;;;;;;;;;;;;;21.62;42.68;100807.81;5073493;28;20281;-67
2023/09/28 06:56:06;;;;;;;;;;;;;;;21.67;43.04;100799.63;5085958;28;19923;-66
2023/09/28 06:58:32;;;;;;;;;;;;;;;21.69;42.90;100780.22;5078783;28;19935;-66
2023/09/28 07:00:58;;;;;;;;;;;;;;;21.68;42.89;100768.47;5053996;28;19924;-64
2023/09/28 07:03:23;;;;;;;;;;;;;;;21.72;42.83;100764.13;5052556;28;19917;-65
2023/09/28 07:05:48;;;;;;;;;;;;;;;21.73;42.35;100767.69;5053757;28;20004;-65
2023/09/28 07:08:14;;;;;;;;;;;;;;;21.70;42.29;100770.97;5065542;28;20381;-65
2023/09/28 07:10:39;;;;;;;;;;;;;;;21.75;42.80;100780.03;5065105;28;19917;-65
2023/09/28 07:13:05;;;;;;;;;;;;;;;21.76;43.39;100776.19;5053010;28;20396;-65
2023/09/28 07:15:35;;;;;;;;;;;;;;;21.79;42.98;100781.16;5056046;28;19917;-65
2023/09/28 07:18:00;;;;;;;;;;;;;;;21.76;43.76;100769.91;5093902;28;20011;-65
2023/09/28 07:20:26;;;;;;;;;;;;;;;21.76;43.71;100748.84;5091475;28;19943;-65
2023/09/28 07:22:51;;;;;;;;;;;;;;;21.74;44.21;100731.91;5055966;28;20007;-65
2023/09/28 07:25:17;;;;;;;;;;;;;;;21.77;44.04;100704.03;5073311;28;19956;-65
2023/09/28 07:27:43;;;;;;;;;;;;;;;21.76;44.51;100702.38;5080036;28;19912;-65
2023/09/28 07:30:08;;;;;;;;;;;;;;;21.79;44.84;100676.44;5074665;28;19912;-65
2023/09/28 07:32:34;;;;;;;;;;;;;;;21.79;44.18;100673.72;5073767;28;19999;-65
2023/09/28 07:35:00;;;;;;;;;;;;;;;21.79;44.25;100644.44;5073747;28;20349;-65
2023/09/28 07:37:26;;;;;;;;;;;;;;;21.79;44.50;100641.72;5073364;28;20353;-65
2023/09/28 07:39:52;;;;;;;;;;;;;;;21.80;44.30;100653.47;5073351;28;19958;-65
2023/09/28 07:42:17;;;;;;;;;;;;;;;21.83;44.55;100672.09;5073280;28;20013;-65
2023/09/28 07:44:43;;;;;;;;;;;;;;;21.80;44.29;100667.97;5073159;28;19913;-65
2023/09/28 07:47:08;;;;;;;;;;;;;;;21.86;44.54;100663.38;5073186;28;19912;-65
2023/09/28 07:49:34;;;;;;;;;;;;;;;21.93;44.09;100652.19;5073361;28;19917;-65
2023/09/28 07:52:00;;;;;;;;;;;;;;;21.91;44.19;100666.09;5073245;28;19999;-65
2023/09/28 07:54:25;;;;;;;;;;;;;;;21.93;44.49;100671.31;5072422;28;20333;-65
2023/09/28 07:56:51;;;;;;;;;;;;;;;21.91;43.93;100679.78;5073200;28;19958;-65
2023/09/28 07:59:16;;;;;;;;;;;;;;;21.96;44.40;100681.75;5073313;28;19913;-65
2023/09/28 08:01:42;;;;;;;;;;;;;;;21.96;44.06;100681.75;5072628;28;20424;-65
2023/09/28 08:04:08;;;;;;;;;;;;;;;21.98;44.64;100666.69;5073271;28;19916;-65
2023/09/28 08:06:34;;;;;;;;;;;;;;;21.97;44.23;100656.03;5073214;28;19957;-65
2023/09/28 08:08:59;;;;;;;;;;;;;;;21.98;44.59;100646.75;5073105;28;20331;-65
2023/09/28 08:11:24;;;;;;;;;;;;;;;22.03;44.74;100649.50;5060253;28;19913;-65
2023/09/28 08:13:50;;;;;;;;;;;;;;;22.08;44.48;100635.03;5057244;28;19924;-65
2023/09/28 08:16:15;;;;;;;;;;;;;;;22.10;44.45;100630.09;5071998;28;19953;-65
2023/09/28 08:18:46;;;;;;;;;;;;;;;22.11;44.09;100649.00;5059977;28;19955;-65
2023/09/28 08:21:11;;;;;;;;;;;;;;;22.16;44.22;100632.63;5076996;28;20403;-65
2023/09/28 08:23:37;;;;;;;;;;;;;;;22.22;44.23;100637.00;5076711;28;19917;-65
2023/09/28 08:26:03;;;;;;;;;;;;;;;22.33;44.11;100637.09;5076659;28;19912;-65
2023/09/28 08:28:29;;;;;;;;;;;;;;;22.35;44.40;100624.78;5084941;28;19916;-65
2023/09/28 08:30:55;;;;;;;;;;;;;;;22.41;43.98;100623.69;5076767;28;20266;-65
2023/09/28 08:33:21;;;;;;;;;;;;;;;22.57;44.10;100610.88;5077195;28;19951;-65
2023/09/28 08:35:47;;;;;;;;;;;;;;;22.70;43.49;100614.22;5076735;28;20395;-65
2023/09/28 08:38:13;;;;;;;;;;;;;;;22.85;44.23;100608.75;5058723;28;20377;-65
2023/09/28 08:40:39;;;;;;;;;;;;;;;23.04;43.19;100591.81;5076423;28;19970;-65
2023/09/28 08:43:06;;;;;;;;;;;;;;;23.26;43.32;100595.06;5076490;28;19935;-65
2023/09/28 08:45:32;;;;;;;;;;;;;;;23.58;43.25;100591.19;5076510;28;19919;-65
2023/09/28 08:47:57;;;;;;;;;;;;;;;23.75;42.99;100588.97;5076517;28;20003;-65
2023/09/28 08:50:23;;;;;;;;;;;;;;;23.82;42.57;100582.38;5076566;28;19920;-65
2023/09/28 08:52:50;;;;;;;;;;;;;;;23.91;42.67;100588.94;5073508;28;20242;-65
2023/09/28 08:55:16;;;;;;;;;;;;;;;24.01;42.77;100601.78;5065524;28;19912;-65
2023/09/28 08:57:42;;;;;;;;;;;;;;;24.07;42.44;100593.28;5096703;28;19912;-65
2023/09/28 09:00:13;;;;;;;;;;;;;;;24.10;41.80;100589.13;5089242;28;19938;-64
2023/09/28 09:02:40;;;;;;;;;;;;;;;24.20;42.95;100596.50;5063739;28;20368;-64
2023/09/28 09:05:06;;;;;;;;;;;;;;;24.18;42.13;100583.03;5056036;28;20377;-65
2023/09/28 09:07:32;;;;;;;;;;;;;;;24.14;42.08;100577.31;5055870;28;19913;-65
2023/09/28 09:09:58;;;;;;;;;;;;;;;24.17;43.15;100559.47;5058562;28;19932;-65
2023/09/28 09:12:24;;;;;;;;;;;;;;;24.17;43.11;100556.72;5076000;28;19912;-65
2023/09/28 09:14:50;;;;;;;;;;;;;;;24.18;42.83;100552.84;5076087;28;20012;-65
2023/09/28 09:17:15;;;;;;;;;;;;;;;24.18;43.64;100554.78;5092040;28;20264;-65
2023/09/28 09:19:41;;;;;;;;;;;;;;;24.15;43.14;100545.22;5095887;28;19924;-65
2023/09/28 09:22:08;;;;;;;;;;;;;;;24.15;42.98;100528.75;5095855;28;19916;-65
2023/09/28 09:24:33;;;;;;;;;;;;;;;24.17;42.41;100534.78;5077646;28;19920;-65
2023/09/28 09:26:58;;;;;;;;;;;;;;;24.20;43.03;100525.13;5095667;28;19919;-65
2023/09/28 09:29:24;;;;;;;;;;;;;;;24.25;42.72;100511.41;5075793;28;20292;-65
2023/09/28 09:31:50;;;;;;;;;;;;;;;24.30;42.98;100508.63;5075478;28;19956;-65
2023/09/28 09:34:17;;;;;;;;;;;;;;;24.30;42.19;100505.88;5075745;28;19935;-65
2023/09/28 09:36:48;;;;;;;;;;;;;;;24.28;42.74;100510.84;5075580;28;19913;-65
2023/09/28 09:39:21;;;;;;;;;;;;;;;24.27;42.79;100503.69;5075671;28;20007;-65
2023/09/28 09:41:49;;;;;;;;;;;;;;;24.32;42.50;100495.44;5075145;28;19957;-65
2023/09/28 09:44:18;;;;;;;;;;;;;;;24.30;42.48;100492.16;5075089;28;20050;-65
2023/09/28 09:46:43;;;;;;;;;;;;;;;24.29;42.67;100501.47;5075077;28;19912;-65
2023/09/28 09:49:09;;;;;;;;;;;;;;;24.25;42.41;100493.00;5057479;28;19919;-65
2023/09/28 09:51:35;;;;;;;;;;;;;;;24.24;42.52;100488.63;5074908;28;19912;-65
2023/09/28 09:54:01;;;;;;;;;;;;;;;24.26;43.78;100469.94;5074455;28;19962;-65
2023/09/28 09:56:27;;;;;;;;;;;;;;;24.31;42.80;100458.94;5075224;28;19916;-65
2023/09/28 09:58:55;;;;;;;;;;;;;;;24.34;43.43;100458.34;5075086;28;19919;-66
2023/09/28 10:01:22;;;;;;;;;;;;;;;24.32;42.80;100451.50;5073312;28;19952;-64
2023/09/28 10:03:47;;;;;;;;;;;;;;;24.31;43.47;100453.44;5055092;28;20296;-65
2023/09/28 10:06:15;;;;;;;;;;;;;;;24.31;42.86;100433.41;5055215;28;19958;-64
2023/09/28 10:08:41;;;;;;;;;;;;;;;24.32;43.13;100427.63;5054957;28;20266;-65
2023/09/28 10:11:08;;;;;;;;;;;;;;;24.32;42.49;100424.06;5061307;28;19935;-65
2023/09/28 10:13:34;;;;;;;;;;;;;;;24.27;43.11;100422.16;5054930;28;19945;-64
2023/09/28 10:16:01;;;;;;;;;;;;;;;24.28;43.11;100403.78;5065511;28;20493;-65
2023/09/28 10:18:29;;;;;;;;;;;;;;;24.25;43.00;100402.44;5094927;28;20007;-65
2023/09/28 10:20:54;;;;;;;;;;;;;;;24.26;43.11;100395.84;5094583;28;19912;-65
2023/09/28 10:23:23;;;;;;;;;;;;;;;24.22;43.11;100415.91;5094554;28;20323;-65
2023/09/28 10:25:58;;;;;;;;;;;;;;;24.17;43.09;100410.47;5094738;28;19919;-65
2023/09/28 10:28:24;;;;;;;;;;;;;;;24.16;44.08;100412.38;5082451;28;19948;-65
2023/09/28 10:31:03;;;;;;;;;;;;;;;24.15;43.67;100418.97;5074512;28;19935;-65
2023/09/28 10:33:32;;;;;;;;;;;;;;;24.14;43.88;100417.34;5073704;28;19916;-65
2023/09/28 10:36:12;;;;;;;;;;;;;;;24.05;43.50;100397.94;5074193;28;20407;-65
2023/09/28 10:38:41;;;;;;;;;;;;;;;24.08;43.92;100383.63;5074391;28;20000;-65
2023/09/28 10:41:07;;;;;;;;;;;;;;;24.06;43.92;100380.34;5074239;28;20045;-65
2023/09/28 10:43:33;;;;;;;;;;;;;;;24.10;44.03;100362.22;5073910;28;20411;-66
2023/09/28 10:46:05;;;;;;;;;;;;;;;24.11;44.49;100374.84;5073999;28;20409;-65
2023/09/28 10:48:44;;;;;;;;;;;;;;;24.11;43.93;100343.84;5074214;28;19956;-65
2023/09/28 10:51:12;;;;;;;;;;;;;;;24.08;44.08;100352.63;5074642;28;19919;-65
2023/09/28 10:53:39;;;;;;;;;;;;;;;24.06;44.47;100355.66;5074111;28;20011;-65
2023/09/28 10:56:08;;;;;;;;;;;;;;;24.08;44.87;100363.59;5085674;28;19912;-65
2023/09/28 10:58:34;;;;;;;;;;;;;;;23.96;46.58;100388.66;5094167;28;19930;-65
2023/09/28 11:01:01;;;;;;;;;;;;;;;23.93;47.45;100376.31;5094207;28;19995;-65
2023/09/28 11:03:29;;;;;;;;;;;;;;;23.87;48.24;100369.25;5074813;28;19921;-65
2023/09/28 11:05:54;;;;;;;;;;;;;;;23.78;48.58;100363.50;5074016;28;19920;-65
2023/09/28 11:08:21;;;;;;;;;;;;;;;23.73;48.40;100359.97;5073656;28;20262;-65
2023/09/28 11:10:47;;;;;;;;;;;;;;;23.74;48.39;100350.66;5064153;28;19919;-65
2023/09/28 11:13:12;;;;;;;;;;;;;;;23.75;47.83;100366.00;5053984;28;19913;-65
2023/09/28 11:15:38;;;;;;;;;;;;;;;23.68;48.28;100366.34;5058206;28;20353;-65
2023/09/28 11:18:04;;;;;;;;;;;;;;;23.68;47.96;100365.50;5093873;28;19927;-65
2023/09/28 11:20:31;;;;;;;;;;;;;;;23.60;47.99;100358.69;5094265;28;19999;-65
2023/09/28 11:22:57;;;;;;;;;;;;;;;23.52;48.29;100351.88;5093842;28;20313;-65
2023/09/28 11:25:23;;;;;;;;;;;;;;;23.48;48.53;100352.75;5076184;28;19916;-65
2023/09/28 11:27:49;;;;;;;;;;;;;;;23.41;49.82;100354.97;5085975;28;20370;-64
2023/09/28 11:30:19;;;;;;;;;;;;;;;23.54;49.85;100359.84;5073674;28;19912;-65
2023/09/28 11:32:51;;;;;;;;;;;;;;;23.54;49.73;100349.69;5074026;28;19920;-65
2023/09/28 11:35:22;;;;;;;;;;;;;;;23.43;50.03;100348.09;5073427;28;20239;-65
2023/09/28 11:37:48;;;;;;;;;;;;;;;23.46;50.23;100335.75;5073354;28;19912;-65
2023/09/28 11:40:13;;;;;;;;;;;;;;;23.48;50.51;100337.13;5073339;28;20424;-65
2023/09/28 11:42:40;;;;;;;;;;;;;;;23.46;50.24;100341.22;5072970;28;20023;-65
2023/09/28 11:45:06;;;;;;;;;;;;;;;23.48;50.36;100341.78;5073262;28;20428;-65
2023/09/28 11:47:32;;;;;;;;;;;;;;;23.56;49.89;100335.69;5073262;28;19913;-65
2023/09/28 11:49:58;;;;;;;;;;;;;;;23.66;49.91;100326.56;5073410;28;19913;-65
2023/09/28 11:52:23;;;;;;;;;;;;;;;23.71;49.70;100319.13;5073579;28;20332;-65
2023/09/28 11:54:49;;;;;;;;;;;;;;;23.62;49.97;100325.50;5072761;28;19913;-65
2023/09/28 11:57:18;;;;;;;;;;;;;;;23.71;49.86;100324.63;5073121;28;19919;-65
2023/09/28 11:59:43;;;;;;;;;;;;;;;23.77;49.72;100315.25;5073112;28;19965;-65
2023/09/28 12:02:09;;;;;;;;;;;;;;;23.82;49.70;100322.66;5055177;28;19912;-65
2023/09/28 12:04:35;;;;;;;;;;;;;;;23.87;49.32;100317.13;5073222;28;19912;-64
2023/09/28 12:07:03;;;;;;;;;;;;;;;23.92;49.09;100308.03;5073263;28;19998;-65
2023/09/28 12:09:31;;;;;;;;;;;;;;;23.82;49.71;100299.91;5073059;28;19928;-65
2023/09/28 12:11:56;;;;;;;;;;;;;;;23.80;49.70;100304.84;5054109;28;19979;-66
2023/09/28 12:14:21;;;;;;;;;;;;;;;23.84;49.51;100295.75;5052942;28;19947;-66
2023/09/28 12:16:47;;;;;;;;;;;;;;;23.86;49.45;100285.31;5076523;28;19919;-65
2023/09/28 12:19:12;;;;;;;;;;;;;;;23.85;49.86;100289.19;5093042;28;19949;-65
2023/09/28 12:21:37;;;;;;;;;;;;;;;23.79;49.64;100287.56;5093217;28;19912;-65
2023/09/28 12:24:03;;;;;;;;;;;;;;;23.76;49.94;100290.88;5090131;28;19955;-65
2023/09/28 12:26:28;;;;;;;;;;;;;;;23.81;49.83;100298.25;5054909;28;19952;-65
2023/09/28 12:28:53;;;;;;;;;;;;;;;23.94;49.91;100295.69;5081019;28;20345;-65
2023/09/28 12:31:19;;;;;;;;;;;;;;;23.95;49.39;100291.00;5072576;28;19916;-65